Index of /wp-hr-content/uploads/2025/03/

NameLast ModifiedSize
UpParent Directory
File2025-022-Introduction-of-Lina-Taitingfong-EEOO.pdf2025-03-18 03:12 33k
FileACCOUNTANT-II-OPEN-DOA141-25.pdf2025-03-21 00:38 305k
FileADMINISTRATIVE-ASSISTANT-CLB-DOA128-25.pdf2025-03-06 06:28 222k
FileADMINISTRATIVE-ASSISTANT-OPEN-DOA119-25.pdf2025-03-06 06:28 214k
FileANIMAL-CONTROL-OFFICER-I-OPEN-DOA116-25.pdf2025-03-06 06:28 256k
FileASSISTANT-CHIEF-PROCUREMENT-OFFICER-OPEN-DOA151-25.pdf2025-03-28 03:59 301k
FileCHIEF-PROCUREMENT-OFFICER-OPEN-DOA143-25.pdf2025-04-09 23:15 321k
FileCOMMUNITY-PROGRAM-AIDE-II-CLTA-OPEN-DOA134-25.pdf2025-03-11 06:01 204k
FileDOA-Circular-2025-017-2025-GLI-Annual-OE-Employees.pdf2025-03-25 06:35 482k
[IMG]DOA-HRD-Functional-Chart-FY-2022-Part-A-newdesign-1024x675.png2025-03-05 23:16 83k
[IMG]DOA-HRD-Functional-Chart-FY-2022-Part-A-newdesign-150x150.png2025-03-05 23:16 15k
[IMG]DOA-HRD-Functional-Chart-FY-2022-Part-A-newdesign-300x225.png2025-03-05 23:16 33k
[IMG]DOA-HRD-Functional-Chart-FY-2022-Part-A-newdesign-400x250.png2025-03-05 23:16 53k
[IMG]DOA-HRD-Functional-Chart-FY-2022-Part-A-newdesign-400x284.png2025-03-05 23:16 55k
[IMG]DOA-HRD-Functional-Chart-FY-2022-Part-A-newdesign-400x516.png2025-03-05 23:16 102k
[IMG]DOA-HRD-Functional-Chart-FY-2022-Part-A-newdesign-480x360.png2025-03-05 23:16 75k
[IMG]DOA-HRD-Functional-Chart-FY-2022-Part-A-newdesign-510x382.png2025-03-05 23:16 84k
[IMG]DOA-HRD-Functional-Chart-FY-2022-Part-A-newdesign-768x576.png2025-03-05 23:16 133k
[IMG]DOA-HRD-Functional-Chart-FY-2022-Part-A-newdesign-980x735.png2025-03-05 23:16 235k
[IMG]DOA-HRD-Functional-Chart-FY-2022-Part-A-newdesign.png2025-03-05 23:16 59k
[IMG]DOA-HRD-Functional-Chart-FY-2022-Part-B-newdesign-1024x675.png2025-03-05 23:16 91k
[IMG]DOA-HRD-Functional-Chart-FY-2022-Part-B-newdesign-150x150.png2025-03-05 23:16 15k
[IMG]DOA-HRD-Functional-Chart-FY-2022-Part-B-newdesign-300x225.png2025-03-05 23:16 39k
[IMG]DOA-HRD-Functional-Chart-FY-2022-Part-B-newdesign-400x250.png2025-03-05 23:16 56k
[IMG]DOA-HRD-Functional-Chart-FY-2022-Part-B-newdesign-400x284.png2025-03-05 23:16 63k
[IMG]DOA-HRD-Functional-Chart-FY-2022-Part-B-newdesign-400x516.png2025-03-05 23:16 82k
[IMG]DOA-HRD-Functional-Chart-FY-2022-Part-B-newdesign-480x360.png2025-03-05 23:16 88k
[IMG]DOA-HRD-Functional-Chart-FY-2022-Part-B-newdesign-510x382.png2025-03-05 23:16 99k
[IMG]DOA-HRD-Functional-Chart-FY-2022-Part-B-newdesign-768x576.png2025-03-05 23:16 167k
[IMG]DOA-HRD-Functional-Chart-FY-2022-Part-B-newdesign-980x735.png2025-03-05 23:16 276k
[IMG]DOA-HRD-Functional-Chart-FY-2022-Part-B-newdesign.png2025-03-05 23:16 65k
[IMG]DOA-HRD-Functional-Chart-FY-2022-Part-C-newdesign-1024x675.png2025-03-05 23:16 76k
[IMG]DOA-HRD-Functional-Chart-FY-2022-Part-C-newdesign-150x150.png2025-03-05 23:16 11k
[IMG]DOA-HRD-Functional-Chart-FY-2022-Part-C-newdesign-300x225.png2025-03-05 23:16 27k
[IMG]DOA-HRD-Functional-Chart-FY-2022-Part-C-newdesign-400x250.png2025-03-05 23:16 40k
[IMG]DOA-HRD-Functional-Chart-FY-2022-Part-C-newdesign-400x284.png2025-03-05 23:16 43k
[IMG]DOA-HRD-Functional-Chart-FY-2022-Part-C-newdesign-400x516.png2025-03-05 23:17 72k
[IMG]DOA-HRD-Functional-Chart-FY-2022-Part-C-newdesign-480x360.png2025-03-05 23:17 59k
[IMG]DOA-HRD-Functional-Chart-FY-2022-Part-C-newdesign-510x382.png2025-03-05 23:17 66k
[IMG]DOA-HRD-Functional-Chart-FY-2022-Part-C-newdesign-768x576.png2025-03-05 23:16 115k
[IMG]DOA-HRD-Functional-Chart-FY-2022-Part-C-newdesign-980x735.png2025-03-05 23:17 189k
[IMG]DOA-HRD-Functional-Chart-FY-2022-Part-C-newdesign.png2025-03-05 23:16 54k
[IMG]DOA-HRD-Organizational-Chart-FY-2022-newdesign-1024x675.png2025-03-05 23:17 55k
[IMG]DOA-HRD-Organizational-Chart-FY-2022-newdesign-150x150.png2025-03-05 23:17 14k
[IMG]DOA-HRD-Organizational-Chart-FY-2022-newdesign-300x225.png2025-03-05 23:17 27k
[IMG]DOA-HRD-Organizational-Chart-FY-2022-newdesign-400x250.png2025-03-05 23:17 36k
[IMG]DOA-HRD-Organizational-Chart-FY-2022-newdesign-400x284.png2025-03-05 23:17 40k
[IMG]DOA-HRD-Organizational-Chart-FY-2022-newdesign-400x516.png2025-03-05 23:17 78k
[IMG]DOA-HRD-Organizational-Chart-FY-2022-newdesign-480x360.png2025-03-05 23:17 52k
[IMG]DOA-HRD-Organizational-Chart-FY-2022-newdesign-510x382.png2025-03-05 23:17 56k
[IMG]DOA-HRD-Organizational-Chart-FY-2022-newdesign-768x576.png2025-03-05 23:17 85k
[IMG]DOA-HRD-Organizational-Chart-FY-2022-newdesign-980x735.png2025-03-05 23:17 136k
[IMG]DOA-HRD-Organizational-Chart-FY-2022-newdesign.png2025-03-05 23:17 46k
FileENGINEERING-AIDE-III-OPEN-DOA146-25.pdf2025-03-20 22:28 304k
FileENVIRONMENTAL-PUBLIC-HEALTH-OFFICER-ADMINISTRATOR-DPHSS-DOA137-25.pdf2025-03-13 22:44 293k
FileFIRE-CAPTAIN-GFD-DOA142-25.pdf2025-03-21 06:11 384k
FileINSURANCE-ADMINISTRATOR-OPEN-DOA144-25.pdf2025-03-20 22:28 333k
FileLAND-AGENT-II-OPEN-DOA105-25.pdf2025-03-06 06:28 227k
FileLAND-AGENT-III-OPEN-DOA118-25.pdf2025-03-06 06:28 257k
FileLICENSED-PRACTICAL-NURSE-I-OPEN-DOA138-25.pdf2025-03-13 22:44 249k
FileMAINTENANCE-WORKER-DCA-DOA145-25.pdf2025-03-28 03:59 262k
FileMANAGEMENT-ANALYST-II-DMA-DOA147-25.pdf2025-03-20 22:28 268k
FileMORGUE-ATTENDANT-OPEN-DOA149-25.pdf2025-03-28 06:28 280k
FilePERSONNEL-ACTIONS-02-20-25-TO-02-25-25.pdf2025-03-03 22:20 5692k
FilePERSONNEL-ACTIONS-02-26-25-TO-03-04-25.pdf2025-03-09 21:48 4316k
FilePERSONNEL-ACTIONS-03-05-25-TO-03-14-25.pdf2025-03-19 01:33 15538k
FilePERSONNEL-ASSISTANT-I-SF-OPEN-DOA133-25.pdf2025-03-11 06:01 218k
FilePERSONNEL-SPECIALIST-II-DOA-DOA130-25.pdf2025-03-06 06:34 261k
FilePERSONNEL-SPECIALIST-III-DOA-DOA131-25.pdf2025-03-14 05:29 319k
FilePROGRAM-COORDINATOR-IV-DCA-DOA148-25.pdf2025-04-01 22:41 380k
FilePROGRAM-COORDINATOR-IV-DOAG-DOA132-25.pdf2025-03-13 22:44 226k
FilePUBLIC-HEALTH-NUTRITION-SPECIALIST-OPEN-DOA139-25.pdf2025-03-13 22:44 268k
FileREVENUE-CYCLE-MANAGEMENT-ADMINISTRATOR.pdf2025-03-09 23:19 159k
FileRIGHT-OF-WAY-SUPERVISOR-OPEN-DOA120-25.pdf2025-03-13 22:44 229k
FileSIC-Highlight-Brochure-1.pdf2025-03-25 06:40 138k
FileSOCIAL-SERVICE-SUPERVISOR-I-CLTA-OPEN-DOA135-25.pdf2025-03-11 06:01 217k
FileSOCIAL-WORKER-III-OPEN-DOA136-25.pdf2025-03-11 06:01 229k
FileTAX-ACCOUNTING-TECHNICIAN-I-OPEN-DOA121-25.pdf2025-03-06 06:28 213k
FileVETERANS-SERVICE-REPRESENTATIVE-OPEN-DOA140-25.pdf2025-03-28 03:59 302k
Proudly Served by LiteSpeed Web Server at hr.doa.guam.gov Port 443